Aeroporto :
LOGIN :

Iscrizione | Disclaimer

   EN    FR    IT 

 










Sommario :    VFR   VFR Marginale   IFR   IFR Intensivo   IFR Molto Intensivo
Visibilità : 
Base nubi : 
>= 8 km
>= 3000ft
5 / 8 km
1000 / 3000 ft
1500m / 5 km
500 / 1000 ft
800 / 1500m
200 / 500 ft
< 800m
< 200 ft
Simboli :   Temporali  Nebbia  Neve Forte  Precipitazioni Forti  Vento > 20 kt
SIGMETs :   Varie  Temporali  Ghiacco  Turbolenza  Onda orograficha  Ceneri Vulcaniche






- Altitudine del aeroporto : 1300 ft
- Codice IATA : LIG


LFBL - Limoges

ULTIMO METAR :
  • 200600Z AUTO 07004KT CAVOK 01/M01 Q1010 TEMPO 0400 FG VV///

METARs OBSOLETI :
  • 200530Z AUTO 07003KT CAVOK 01/M01 Q1011 TEMPO 0400 FG VV///
  • 200500Z AUTO 04004KT CAVOK 01/M00 Q1010 TEMPO 0400 FG VV///
  • 200430Z AUTO 06004KT CAVOK 00/M01 Q1011 TEMPO 0400 FG VV///
  • 200400Z AUTO 09004KT CAVOK 00/M01 Q1011 TEMPO 0400 FG VV///

TAF TAF LFBL
Valido dal 20 a 06 ore il 21 a 06 ore UTC


200500Z 2006/2106 VRB02KT CAVOK
TEMPO 2006/2009 2000 BR
PROB40
TEMPO 2006/2008 0400 FG VV///
BECMG 2009/2011 13007KT
ATIS : +33 5 55 48 40 37



MetMap, La meteo Aeronautica in un colpo d'occhio ! - Copyright ORBIFLY Dicembre 2007 - Disclaimer

ORBIFLY MET'MAP TEAM :

Programmazione e sviluppo : Alexandra Zaïnal
Concezione e sviluppo : Baudouin d'Aumeries
Co-Programmazione e sviluppo : Marc-Olivier Méhu
Supporto tecnico e logistico : Manuel Goepfert
Aiuto per la traduzione : Arnaldo La Scala

Contatto : metmap@orbifly.com




FONTI E CREDITI :

   NOAA